CXA8997 ZSAM-ZSWX
Flight info
| Callsign | CXA8997 |
|---|---|
| Flight time | 1h 9m |
| Altitude | 30100 |
| Route | DOVPU9Z DOVPU W643 FOC W644 ANLUD/K0876S1070 B221 SHZ G204 JTN JTN81A |
| Aircraft | B738/M-SDE2E3FGHIRWXY/LB1 |
Departure
| Time | 2026-05-05 03:06 |
|---|---|
| Airport | Xiamen Gaoqi International Airport (ZSAM) |
Arrival
| Time | 2026-05-05 04:16 |
|---|---|
| Airport | Sunan Shuofang International Airport (ZSWX) |
| Time | Latitude | Longitude | Altitude | Speed | Heading |
|---|---|---|---|---|---|
| 2026-05-05 02:50 | 24.53506 | 118.12048 | 44 ft | 0 kts | 179° |
| 2026-05-05 02:59 | 24.53507 | 118.12048 | 44 ft | 2 kts | 179° |
| 2026-05-05 03:00 | 24.53526 | 118.12047 | 41 ft | 3 kts | 175° |
| 2026-05-05 03:00 | 24.53546 | 118.12045 | 42 ft | 3 kts | 170° |
| 2026-05-05 03:00 | 24.53562 | 118.12041 | 42 ft | 2 kts | 157° |
| 2026-05-05 03:00 | 24.53571 | 118.12036 | 44 ft | 1 kts | 135° |
| 2026-05-05 03:01 | 24.53576 | 118.12028 | 41 ft | 1 kts | 98° |
| 2026-05-05 03:01 | 24.53576 | 118.12019 | 41 ft | 1 kts | 71° |
| 2026-05-05 03:01 | 24.53573 | 118.12010 | 41 ft | 1 kts | 60° |
| 2026-05-05 03:01 | 24.53569 | 118.12003 | 42 ft | 1 kts | 54° |
| 2026-05-05 03:02 | 24.53566 | 118.11999 | 40 ft | 0 kts | 53° |
| 2026-05-05 03:03 | 24.53595 | 118.12014 | 42 ft | 8 kts | 2° |
| 2026-05-05 03:03 | 24.53624 | 118.11955 | 43 ft | 14 kts | 244° |
| 2026-05-05 03:04 | 24.53565 | 118.11868 | 42 ft | 14 kts | 232° |
| 2026-05-05 03:04 | 24.53506 | 118.11787 | 41 ft | 13 kts | 231° |
| 2026-05-05 03:04 | 24.53458 | 118.11703 | 44 ft | 13 kts | 261° |
| 2026-05-05 03:04 | 24.53512 | 118.11627 | 44 ft | 14 kts | 320° |
| 2026-05-05 03:05 | 24.53594 | 118.11617 | 43 ft | 13 kts | 49° |
| 2026-05-05 03:05 | 24.53651 | 118.11697 | 42 ft | 14 kts | 52° |
| 2026-05-05 03:05 | 24.53819 | 118.11932 | 40 ft | 75 kts | 52° |
| 2026-05-05 03:05 | 24.54283 | 118.12581 | 43 ft | 139 kts | 52° |
| 2026-05-05 03:06 | 24.54964 | 118.13520 | 393 ft | 163 kts | 51° |
| 2026-05-05 03:06 | 24.55663 | 118.14493 | 1333 ft | 161 kts | 51° |
| 2026-05-05 03:06 | 24.56100 | 118.15108 | 1872 ft | 162 kts | 51° |
| 2026-05-05 03:06 | 24.56831 | 118.16136 | 2351 ft | 186 kts | 52° |
| 2026-05-05 03:07 | 24.57684 | 118.17335 | 2613 ft | 213 kts | 52° |
| 2026-05-05 03:07 | 24.58652 | 118.18696 | 2834 ft | 239 kts | 52° |
| 2026-05-05 03:07 | 24.59717 | 118.20191 | 3395 ft | 256 kts | 52° |
| 2026-05-05 03:07 | 24.60814 | 118.21731 | 4389 ft | 259 kts | 51° |
| 2026-05-05 03:08 | 24.61996 | 118.23269 | 5011 ft | 274 kts | 44° |
| 2026-05-05 03:08 | 24.63397 | 118.24732 | 5789 ft | 279 kts | 41° |
| 2026-05-05 03:08 | 24.64850 | 118.26176 | 6603 ft | 286 kts | 40° |
| 2026-05-05 03:08 | 24.66347 | 118.27664 | 7316 ft | 293 kts | 40° |
| 2026-05-05 03:09 | 24.67432 | 118.28753 | 7870 ft | 297 kts | 40° |
| 2026-05-05 03:09 | 24.68890 | 118.30227 | 8543 ft | 304 kts | 40° |
| 2026-05-05 03:09 | 24.70459 | 118.31825 | 9269 ft | 311 kts | 40° |
| 2026-05-05 03:09 | 24.72059 | 118.33460 | 10030 ft | 316 kts | 41° |
| 2026-05-05 03:10 | 24.73694 | 118.35137 | 10463 ft | 332 kts | 41° |
| 2026-05-05 03:10 | 24.75378 | 118.37020 | 10682 ft | 358 kts | 45° |
| 2026-05-05 03:10 | 24.77126 | 118.39100 | 10841 ft | 382 kts | 45° |
| 2026-05-05 03:10 | 24.78957 | 118.41309 | 11098 ft | 398 kts | 46° |
| 2026-05-05 03:11 | 24.80848 | 118.43582 | 11628 ft | 405 kts | 45° |
| 2026-05-05 03:11 | 24.82766 | 118.45873 | 12263 ft | 408 kts | 45° |
| 2026-05-05 03:11 | 24.84707 | 118.48176 | 12903 ft | 412 kts | 45° |
| 2026-05-05 03:11 | 24.86667 | 118.50497 | 13504 ft | 417 kts | 45° |
| 2026-05-05 03:12 | 24.88657 | 118.52841 | 14061 ft | 421 kts | 44° |
| 2026-05-05 03:12 | 24.90679 | 118.55208 | 14509 ft | 427 kts | 44° |
| 2026-05-05 03:12 | 24.92731 | 118.57603 | 15022 ft | 432 kts | 44° |
| 2026-05-05 03:12 | 24.94801 | 118.60021 | 15518 ft | 436 kts | 44° |
| 2026-05-05 03:13 | 24.96896 | 118.62472 | 15931 ft | 442 kts | 44° |
| 2026-05-05 03:13 | 24.99011 | 118.64950 | 16359 ft | 447 kts | 44° |
| 2026-05-05 03:13 | 25.01156 | 118.67465 | 16760 ft | 453 kts | 44° |
| 2026-05-05 03:13 | 25.03322 | 118.70008 | 17220 ft | 457 kts | 44° |
| 2026-05-05 03:14 | 25.05509 | 118.72578 | 17668 ft | 461 kts | 44° |
| 2026-05-05 03:14 | 25.07717 | 118.75173 | 18091 ft | 466 kts | 44° |
| 2026-05-05 03:14 | 25.09944 | 118.77792 | 18493 ft | 471 kts | 44° |
| 2026-05-05 03:14 | 25.12193 | 118.80439 | 18859 ft | 474 kts | 44° |
| 2026-05-05 03:15 | 25.14453 | 118.83101 | 19275 ft | 476 kts | 44° |
| 2026-05-05 03:15 | 25.16725 | 118.85778 | 19669 ft | 479 kts | 44° |
| 2026-05-05 03:15 | 25.19008 | 118.88471 | 20062 ft | 482 kts | 44° |
| 2026-05-05 03:15 | 25.21309 | 118.91185 | 20414 ft | 486 kts | 44° |
| 2026-05-05 03:16 | 25.23628 | 118.93922 | 20783 ft | 489 kts | 44° |
| 2026-05-05 03:16 | 25.25956 | 118.96671 | 21156 ft | 492 kts | 44° |
| 2026-05-05 03:16 | 25.28304 | 118.99431 | 21514 ft | 494 kts | 44° |
| 2026-05-05 03:16 | 25.30678 | 119.02191 | 21864 ft | 497 kts | 44° |
| 2026-05-05 03:17 | 25.33072 | 119.04963 | 22205 ft | 500 kts | 43° |
| 2026-05-05 03:17 | 25.35480 | 119.07754 | 22533 ft | 503 kts | 44° |
| 2026-05-05 03:17 | 25.37899 | 119.10561 | 22870 ft | 505 kts | 44° |
| 2026-05-05 03:17 | 25.40324 | 119.13382 | 23201 ft | 508 kts | 44° |
| 2026-05-05 03:18 | 25.42760 | 119.16221 | 23512 ft | 510 kts | 44° |
| 2026-05-05 03:18 | 25.45212 | 119.19081 | 23783 ft | 513 kts | 44° |
| 2026-05-05 03:18 | 25.47674 | 119.21956 | 24043 ft | 515 kts | 44° |
| 2026-05-05 03:18 | 25.50144 | 119.24841 | 24321 ft | 517 kts | 44° |
| 2026-05-05 03:19 | 25.55101 | 119.30638 | 24858 ft | 520 kts | 44° |
| 2026-05-05 03:19 | 25.57582 | 119.33560 | 25106 ft | 522 kts | 44° |
| 2026-05-05 03:19 | 25.60071 | 119.36503 | 25352 ft | 524 kts | 44° |
| 2026-05-05 03:20 | 25.62454 | 119.39325 | 25578 ft | 526 kts | 44° |
| 2026-05-05 03:20 | 25.65032 | 119.42378 | 25816 ft | 528 kts | 44° |
| 2026-05-05 03:20 | 25.67546 | 119.45357 | 26054 ft | 530 kts | 44° |
| 2026-05-05 03:20 | 25.70044 | 119.48316 | 26188 ft | 535 kts | 44° |
| 2026-05-05 03:21 | 25.72635 | 119.51386 | 26310 ft | 540 kts | 44° |
| 2026-05-05 03:21 | 25.75212 | 119.54423 | 26544 ft | 541 kts | 42° |
| 2026-05-05 03:21 | 25.78005 | 119.57198 | 26770 ft | 537 kts | 34° |
| 2026-05-05 03:21 | 25.81024 | 119.59498 | 26978 ft | 531 kts | 24° |
| 2026-05-05 03:22 | 25.84303 | 119.61347 | 27193 ft | 528 kts | 20° |
| 2026-05-05 03:22 | 25.87614 | 119.63119 | 27435 ft | 528 kts | 20° |
| 2026-05-05 03:22 | 25.90900 | 119.64944 | 27731 ft | 528 kts | 21° |
| 2026-05-05 03:22 | 25.94168 | 119.66804 | 28070 ft | 527 kts | 21° |
| 2026-05-05 03:23 | 25.97431 | 119.68634 | 28407 ft | 525 kts | 21° |
| 2026-05-05 03:23 | 26.00700 | 119.70454 | 28719 ft | 525 kts | 21° |
| 2026-05-05 03:23 | 26.03967 | 119.72245 | 29053 ft | 523 kts | 20° |
| 2026-05-05 03:23 | 26.07246 | 119.73977 | 29424 ft | 520 kts | 19° |
| 2026-05-05 03:24 | 26.10522 | 119.75674 | 29802 ft | 518 kts | 19° |
| 2026-05-05 03:24 | 26.13791 | 119.77358 | 30140 ft | 517 kts | 18° |
| 2026-05-05 03:24 | 26.20347 | 119.80746 | 30214 ft | 520 kts | 19° |
| 2026-05-05 03:25 | 26.26881 | 119.84160 | 30214 ft | 518 kts | 19° |
| 2026-05-05 03:25 | 26.33389 | 119.87578 | 30223 ft | 516 kts | 19° |
| 2026-05-05 03:26 | 26.39887 | 119.90995 | 30218 ft | 516 kts | 19° |
| 2026-05-05 03:26 | 26.46376 | 119.94410 | 30217 ft | 516 kts | 19° |
| 2026-05-05 03:27 | 26.52875 | 119.97833 | 30212 ft | 517 kts | 19° |
| 2026-05-05 03:27 | 26.59386 | 120.01266 | 30230 ft | 520 kts | 19° |
| 2026-05-05 03:28 | 26.65982 | 120.04746 | 30511 ft | 526 kts | 19° |
| 2026-05-05 03:28 | 26.69286 | 120.06494 | 30785 ft | 526 kts | 19° |
| 2026-05-05 03:28 | 26.72590 | 120.08244 | 31025 ft | 526 kts | 19° |
| 2026-05-05 03:29 | 26.75899 | 120.09996 | 31245 ft | 526 kts | 19° |
| 2026-05-05 03:29 | 26.79212 | 120.11752 | 31469 ft | 527 kts | 19° |
| 2026-05-05 03:29 | 26.82526 | 120.13508 | 31715 ft | 527 kts | 18° |
| 2026-05-05 03:29 | 26.85841 | 120.15267 | 31982 ft | 527 kts | 18° |
| 2026-05-05 03:30 | 26.89151 | 120.17024 | 32263 ft | 526 kts | 18° |
| 2026-05-05 03:30 | 26.92458 | 120.18782 | 32536 ft | 526 kts | 18° |
| 2026-05-05 03:30 | 26.95763 | 120.20538 | 32807 ft | 526 kts | 18° |
| 2026-05-05 03:30 | 26.99067 | 120.22295 | 33086 ft | 525 kts | 18° |
| 2026-05-05 03:31 | 27.02363 | 120.24050 | 33398 ft | 524 kts | 18° |
| 2026-05-05 03:31 | 27.05656 | 120.25804 | 33689 ft | 523 kts | 17° |
| 2026-05-05 03:31 | 27.08946 | 120.27556 | 33939 ft | 523 kts | 17° |
| 2026-05-05 03:31 | 27.12230 | 120.29307 | 34177 ft | 523 kts | 17° |
| 2026-05-05 03:32 | 27.18832 | 120.32827 | 34232 ft | 526 kts | 17° |
| 2026-05-05 03:32 | 27.25428 | 120.36354 | 34230 ft | 524 kts | 17° |
| 2026-05-05 03:33 | 27.31994 | 120.39870 | 34232 ft | 522 kts | 17° |
| 2026-05-05 03:33 | 27.38500 | 120.43356 | 34230 ft | 521 kts | 17° |
| 2026-05-05 03:34 | 27.45051 | 120.46868 | 34228 ft | 524 kts | 18° |
| 2026-05-05 03:34 | 27.51664 | 120.50419 | 34235 ft | 528 kts | 18° |
| 2026-05-05 03:35 | 27.58274 | 120.53975 | 34239 ft | 531 kts | 18° |
| 2026-05-05 03:35 | 27.64987 | 120.57594 | 34242 ft | 532 kts | 18° |
| 2026-05-05 03:36 | 27.71660 | 120.61195 | 34234 ft | 531 kts | 18° |
| 2026-05-05 03:36 | 27.78482 | 120.63988 | 34231 ft | 511 kts | 2° |
| 2026-05-05 03:37 | 27.85431 | 120.65548 | 34235 ft | 508 kts | 1° |
| 2026-05-05 03:37 | 27.92365 | 120.67046 | 34238 ft | 507 kts | 1° |
| 2026-05-05 03:38 | 27.99287 | 120.68603 | 34231 ft | 507 kts | 2° |
| 2026-05-05 03:38 | 28.06197 | 120.70199 | 34236 ft | 507 kts | 2° |
| 2026-05-05 03:39 | 28.13105 | 120.71807 | 34236 ft | 507 kts | 2° |
| 2026-05-05 03:39 | 28.20010 | 120.73414 | 34232 ft | 507 kts | 2° |
| 2026-05-05 03:40 | 28.26915 | 120.75020 | 34236 ft | 507 kts | 2° |
| 2026-05-05 03:40 | 28.33834 | 120.76630 | 34243 ft | 508 kts | 2° |
| 2026-05-05 03:41 | 28.40767 | 120.78246 | 34233 ft | 509 kts | 2° |
| 2026-05-05 03:41 | 28.47726 | 120.79870 | 34227 ft | 511 kts | 2° |
| 2026-05-05 03:42 | 28.53509 | 120.81223 | 34204 ft | 511 kts | 2° |
| 2026-05-05 03:42 | 28.60462 | 120.82856 | 34195 ft | 511 kts | 2° |
| 2026-05-05 03:43 | 28.67417 | 120.84488 | 34226 ft | 509 kts | 2° |
| 2026-05-05 03:43 | 28.74361 | 120.86115 | 34215 ft | 509 kts | 2° |
| 2026-05-05 03:44 | 28.81304 | 120.87743 | 34215 ft | 510 kts | 2° |
| 2026-05-05 03:44 | 28.88262 | 120.89379 | 34218 ft | 511 kts | 2° |
| 2026-05-05 03:45 | 28.95232 | 120.91022 | 34212 ft | 512 kts | 2° |
| 2026-05-05 03:45 | 29.02205 | 120.92666 | 34036 ft | 515 kts | 2° |
| 2026-05-05 03:46 | 29.05718 | 120.93494 | 33773 ft | 515 kts | 2° |
| 2026-05-05 03:46 | 29.09215 | 120.94325 | 33476 ft | 511 kts | 3° |
| 2026-05-05 03:46 | 29.12691 | 120.95153 | 33236 ft | 511 kts | 2° |
| 2026-05-05 03:46 | 29.16184 | 120.95979 | 32996 ft | 514 kts | 2° |
| 2026-05-05 03:47 | 29.19694 | 120.96806 | 32757 ft | 516 kts | 2° |
| 2026-05-05 03:47 | 29.23214 | 120.97638 | 32512 ft | 517 kts | 3° |
| 2026-05-05 03:47 | 29.26744 | 120.98473 | 32276 ft | 518 kts | 3° |
| 2026-05-05 03:47 | 29.30278 | 120.99312 | 32035 ft | 519 kts | 3° |
| 2026-05-05 03:48 | 29.33811 | 121.00152 | 31813 ft | 519 kts | 4° |
| 2026-05-05 03:48 | 29.37346 | 121.00993 | 31577 ft | 519 kts | 4° |
| 2026-05-05 03:48 | 29.40832 | 121.01824 | 31341 ft | 518 kts | 3° |
| 2026-05-05 03:48 | 29.44358 | 121.02665 | 31112 ft | 517 kts | 3° |
| 2026-05-05 03:49 | 29.47875 | 121.03505 | 30876 ft | 516 kts | 3° |
| 2026-05-05 03:49 | 29.51386 | 121.04343 | 30643 ft | 515 kts | 3° |
| 2026-05-05 03:49 | 29.54893 | 121.05179 | 30408 ft | 514 kts | 3° |
| 2026-05-05 03:49 | 29.58367 | 121.06007 | 30253 ft | 518 kts | 3° |
| 2026-05-05 03:50 | 29.65454 | 121.07695 | 30206 ft | 520 kts | 4° |
| 2026-05-05 03:50 | 29.72507 | 121.09389 | 30175 ft | 517 kts | 4° |
| 2026-05-05 03:51 | 29.79448 | 121.11052 | 30187 ft | 518 kts | 4° |
| 2026-05-05 03:51 | 29.86516 | 121.12747 | 30176 ft | 519 kts | 4° |
| 2026-05-05 03:52 | 29.93579 | 121.14447 | 30177 ft | 518 kts | 4° |
| 2026-05-05 03:52 | 30.00631 | 121.16145 | 30184 ft | 518 kts | 4° |
| 2026-05-05 03:53 | 30.07680 | 121.17843 | 30175 ft | 517 kts | 4° |
| 2026-05-05 03:53 | 30.14723 | 121.19544 | 30169 ft | 516 kts | 4° |
| 2026-05-05 03:54 | 30.21750 | 121.21243 | 30112 ft | 515 kts | 4° |
| 2026-05-05 03:54 | 30.25254 | 121.22088 | 29823 ft | 512 kts | 4° |
| 2026-05-05 03:54 | 30.28736 | 121.22750 | 29552 ft | 503 kts | 0° |
| 2026-05-05 03:55 | 30.32195 | 121.23255 | 29294 ft | 501 kts | 359° |
| 2026-05-05 03:55 | 30.35663 | 121.23695 | 29032 ft | 501 kts | 359° |
| 2026-05-05 03:55 | 30.39129 | 121.24120 | 28769 ft | 501 kts | 359° |
| 2026-05-05 03:55 | 30.42588 | 121.24554 | 28506 ft | 500 kts | 359° |
| 2026-05-05 03:56 | 30.46044 | 121.25003 | 28250 ft | 500 kts | 0° |
| 2026-05-05 03:56 | 30.49495 | 121.25467 | 27989 ft | 499 kts | 0° |
| 2026-05-05 03:56 | 30.52940 | 121.25941 | 27734 ft | 498 kts | 1° |
| 2026-05-05 03:56 | 30.56378 | 121.26418 | 27487 ft | 497 kts | 1° |
| 2026-05-05 03:57 | 30.59807 | 121.26895 | 27235 ft | 496 kts | 1° |
| 2026-05-05 03:57 | 30.63234 | 121.27372 | 26983 ft | 495 kts | 1° |
| 2026-05-05 03:57 | 30.66655 | 121.27847 | 26738 ft | 495 kts | 1° |
| 2026-05-05 03:57 | 30.70073 | 121.28320 | 26494 ft | 494 kts | 1° |
| 2026-05-05 03:58 | 30.73486 | 121.28793 | 26245 ft | 494 kts | 2° |
| 2026-05-05 03:58 | 30.76900 | 121.29267 | 25235 ft | 496 kts | 2° |
| 2026-05-05 03:58 | 30.80306 | 121.29740 | 24535 ft | 491 kts | 3° |
| 2026-05-05 03:58 | 30.83683 | 121.30210 | 23812 ft | 486 kts | 3° |
| 2026-05-05 03:59 | 30.87008 | 121.30674 | 23100 ft | 473 kts | 4° |
| 2026-05-05 03:59 | 30.90228 | 121.31126 | 22129 ft | 461 kts | 4° |
| 2026-05-05 03:59 | 30.93384 | 121.31565 | 21002 ft | 454 kts | 4° |
| 2026-05-05 03:59 | 30.96508 | 121.31999 | 19918 ft | 448 kts | 4° |
| 2026-05-05 04:00 | 30.99579 | 121.32425 | 18934 ft | 441 kts | 4° |
| 2026-05-05 04:00 | 31.02602 | 121.32846 | 17910 ft | 434 kts | 4° |
| 2026-05-05 04:00 | 31.05574 | 121.33261 | 16862 ft | 426 kts | 4° |
| 2026-05-05 04:00 | 31.08493 | 121.33580 | 15851 ft | 416 kts | 356° |
| 2026-05-05 04:01 | 31.11287 | 121.32970 | 14981 ft | 404 kts | 336° |
| 2026-05-05 04:01 | 31.13763 | 121.31469 | 14115 ft | 403 kts | 322° |
| 2026-05-05 04:01 | 31.15798 | 121.29287 | 13438 ft | 395 kts | 310° |
| 2026-05-05 04:01 | 31.17539 | 121.26810 | 12771 ft | 391 kts | 307° |
| 2026-05-05 04:02 | 31.19208 | 121.24305 | 12045 ft | 389 kts | 306° |
| 2026-05-05 04:02 | 31.20841 | 121.21825 | 11375 ft | 386 kts | 307° |
| 2026-05-05 04:02 | 31.22441 | 121.19407 | 11272 ft | 368 kts | 307° |
| 2026-05-05 04:02 | 31.23984 | 121.17095 | 11106 ft | 354 kts | 307° |
| 2026-05-05 04:03 | 31.25477 | 121.14871 | 10963 ft | 342 kts | 307° |
| 2026-05-05 04:03 | 31.26920 | 121.12728 | 10817 ft | 330 kts | 307° |
| 2026-05-05 04:03 | 31.28319 | 121.10658 | 10691 ft | 319 kts | 307° |
| 2026-05-05 04:03 | 31.29674 | 121.08652 | 10563 ft | 309 kts | 307° |
| 2026-05-05 04:04 | 31.30988 | 121.06710 | 10443 ft | 301 kts | 307° |
| 2026-05-05 04:04 | 31.32270 | 121.04818 | 10321 ft | 293 kts | 308° |
| 2026-05-05 04:04 | 31.33504 | 121.02996 | 10184 ft | 286 kts | 307° |
| 2026-05-05 04:04 | 31.34744 | 121.01163 | 9991 ft | 282 kts | 307° |
| 2026-05-05 04:05 | 31.35967 | 120.99354 | 9587 ft | 285 kts | 308° |
| 2026-05-05 04:05 | 31.37207 | 120.97516 | 9096 ft | 291 kts | 307° |
| 2026-05-05 04:05 | 31.38465 | 120.95649 | 8684 ft | 293 kts | 308° |
| 2026-05-05 04:05 | 31.39723 | 120.93785 | 8419 ft | 290 kts | 308° |
| 2026-05-05 04:06 | 31.40947 | 120.91971 | 8211 ft | 285 kts | 308° |
| 2026-05-05 04:06 | 31.42160 | 120.90174 | 8031 ft | 281 kts | 308° |
| 2026-05-05 04:06 | 31.43367 | 120.88388 | 7852 ft | 275 kts | 308° |
| 2026-05-05 04:06 | 31.44542 | 120.86640 | 7656 ft | 272 kts | 308° |
| 2026-05-05 04:07 | 31.45707 | 120.84909 | 7446 ft | 268 kts | 308° |
| 2026-05-05 04:07 | 31.46870 | 120.83178 | 7212 ft | 266 kts | 308° |
| 2026-05-05 04:07 | 31.47998 | 120.81502 | 6964 ft | 265 kts | 308° |
| 2026-05-05 04:07 | 31.49135 | 120.79812 | 6704 ft | 264 kts | 308° |
| 2026-05-05 04:08 | 31.50268 | 120.78124 | 6439 ft | 264 kts | 308° |
| 2026-05-05 04:08 | 31.51003 | 120.77032 | 6215 ft | 266 kts | 308° |
| 2026-05-05 04:08 | 31.52146 | 120.75336 | 5941 ft | 265 kts | 308° |
| 2026-05-05 04:08 | 31.53293 | 120.73629 | 5660 ft | 267 kts | 307° |
| 2026-05-05 04:09 | 31.54452 | 120.71907 | 5351 ft | 270 kts | 307° |
| 2026-05-05 04:09 | 31.55615 | 120.70176 | 5104 ft | 271 kts | 306° |
| 2026-05-05 04:09 | 31.56769 | 120.68427 | 4859 ft | 272 kts | 306° |
| 2026-05-05 04:09 | 31.57924 | 120.66690 | 4714 ft | 269 kts | 307° |
| 2026-05-05 04:10 | 31.59095 | 120.64998 | 4610 ft | 264 kts | 307° |
| 2026-05-05 04:10 | 31.60223 | 120.63318 | 4462 ft | 258 kts | 307° |
| 2026-05-05 04:10 | 31.61297 | 120.61670 | 4372 ft | 252 kts | 304° |
| 2026-05-05 04:10 | 31.62360 | 120.60034 | 4138 ft | 252 kts | 304° |
| 2026-05-05 04:11 | 31.63170 | 120.58232 | 3915 ft | 248 kts | 286° |
| 2026-05-05 04:11 | 31.63712 | 120.56359 | 3825 ft | 237 kts | 287° |
| 2026-05-05 04:11 | 31.64283 | 120.54580 | 3673 ft | 227 kts | 288° |
| 2026-05-05 04:11 | 31.64766 | 120.52869 | 3577 ft | 214 kts | 284° |
| 2026-05-05 04:12 | 31.64908 | 120.51159 | 3103 ft | 206 kts | 250° |
| 2026-05-05 04:12 | 31.64234 | 120.49794 | 2740 ft | 196 kts | 211° |
| 2026-05-05 04:12 | 31.63089 | 120.49123 | 2559 ft | 185 kts | 205° |
| 2026-05-05 04:12 | 31.61967 | 120.48463 | 2366 ft | 179 kts | 206° |
| 2026-05-05 04:13 | 31.60860 | 120.47884 | 2092 ft | 168 kts | 200° |
| 2026-05-05 04:13 | 31.59806 | 120.47406 | 1858 ft | 152 kts | 200° |
| 2026-05-05 04:13 | 31.58796 | 120.46969 | 1582 ft | 154 kts | 200° |
| 2026-05-05 04:13 | 31.57803 | 120.46540 | 1415 ft | 153 kts | 199° |
| 2026-05-05 04:14 | 31.56799 | 120.46090 | 1211 ft | 153 kts | 198° |
| 2026-05-05 04:14 | 31.55774 | 120.45664 | 1000 ft | 160 kts | 197° |
| 2026-05-05 04:14 | 31.54732 | 120.45214 | 795 ft | 158 kts | 197° |
| 2026-05-05 04:14 | 31.53728 | 120.44773 | 582 ft | 150 kts | 197° |
| 2026-05-05 04:15 | 31.52755 | 120.44358 | 401 ft | 150 kts | 195° |
| 2026-05-05 04:15 | 31.51754 | 120.43922 | 174 ft | 155 kts | 199° |
| 2026-05-05 04:15 | 31.50781 | 120.43508 | 33 ft | 140 kts | 199° |
| 2026-05-05 04:15 | 31.49998 | 120.43172 | 25 ft | 90 kts | 200° |
| 2026-05-05 04:16 | 31.49616 | 120.43004 | 23 ft | 34 kts | 202° |
| 2026-05-05 04:16 | 31.49448 | 120.42855 | 24 ft | 17 kts | 226° |
| 2026-05-05 04:16 | 31.49400 | 120.42744 | 27 ft | 16 kts | 284° |
| 2026-05-05 04:16 | 31.49482 | 120.42696 | 25 ft | 15 kts | 18° |
| 2026-05-05 04:17 | 31.49580 | 120.42742 | 25 ft | 15 kts | 20° |
| 2026-05-05 04:17 | 31.49675 | 120.42782 | 25 ft | 15 kts | 20° |
| 2026-05-05 04:17 | 31.49784 | 120.42829 | 24 ft | 19 kts | 20° |
| 2026-05-05 04:17 | 31.49929 | 120.42892 | 24 ft | 25 kts | 20° |
| 2026-05-05 04:18 | 31.50104 | 120.42967 | 25 ft | 27 kts | 20° |
| 2026-05-05 04:18 | 31.50277 | 120.43042 | 29 ft | 26 kts | 20° |
| 2026-05-05 04:18 | 31.50439 | 120.43112 | 28 ft | 24 kts | 19° |
| 2026-05-05 04:18 | 31.50591 | 120.43177 | 26 ft | 23 kts | 20° |
| 2026-05-05 04:19 | 31.50737 | 120.43241 | 26 ft | 23 kts | 20° |
| 2026-05-05 04:19 | 31.50895 | 120.43307 | 28 ft | 25 kts | 18° |
| 2026-05-05 04:19 | 31.50963 | 120.43291 | 26 ft | 10 kts | 300° |
| 2026-05-05 04:19 | 31.51013 | 120.43234 | 27 ft | 10 kts | 295° |
| 2026-05-05 04:20 | 31.51028 | 120.43183 | 26 ft | 1 kts | 290° |
| 2026-05-05 04:20 | 31.51029 | 120.43181 | 26 ft | 0 kts | 290° |